Nearby METAR Reports

 

KHCR - Heber/Russ Mcdon, Utah, USA
Distance from station: SSW 18mi, 29km
Updated: Thu, 14-Nov-2019 2:55am MST
Clear
Clear
 Wind from calm
Wind: Calm
Temperature: 21°F , -6°C
Dew Point: 18°F , -8°C
Humidity: 86%
Barometer: 30.25 inHg , 1024.4 hPa
Clouds: Clear
Visibility: 10 miles , 16 km
2019/11/14 09:55 KHCR 140955Z AUTO 00000KT 10SM CLR M06/M08 A3025 RMK AO2
KSLC - Salt Lake City, Utah, USA
Distance from station: W 35mi, 57km
Updated: Thu, 14-Nov-2019 2:54am MST
Clear
Clear
 Wind from calm
Wind: Calm
Temperature: 37°F , 3°C
Dew Point: 28°F , -2°C
Humidity: 70%
Barometer: 30.19 inHg , 1022.4 hPa
Clouds: Clear
Visibility: 10 miles , 16 km
2019/11/14 09:54 KSLC 140954Z 00000KT 10SM CLR 03/M02 A3019 RMK AO2 SLP208 T00281017 $
 
KU42 - Salt Lake Muni, Utah, USA
Distance from station: WSW 37mi, 59km
Updated: Thu, 14-Nov-2019 2:35am MST
Clear
Clear
 Wind from SSW
Wind: SSW 5 mph , 7 km/h
Temperature: 36°F , 2°C
Wind Chill: 32°F , 0°C
Dew Point: 30°F , -1°C
Humidity: 81%
Barometer: 30.20 inHg , 1022.7 hPa
Clouds: Clear
Visibility: 10 miles , 16 km
2019/11/14 09:35 KU42 140935Z AUTO 21004KT 10SM CLR 02/M01 A3020 RMK AO1 T00171009
KEVW - Evanston, Wyoming, USA
Distance from station: NNE 40mi, 64km
Updated: Thu, 14-Nov-2019 2:53am MST
Clear
Clear
 Wind from S
Wind: S 6 mph , 9 km/h
Temperature: 34°F , 1°C
Wind Chill: 29°F , -2°C
Dew Point: 21°F , -6°C
Humidity: 60%
Barometer: 30.25 inHg , 1024.4 hPa
Clouds: Clear
Visibility: 10 miles , 16 km
2019/11/14 09:53 KEVW 140953Z AUTO 18005KT 10SM CLR 01/M06 A3025 RMK AO2 SLP214 T00061056 $
 
KPVU - Provo Muni, Utah, USA
Distance from station: SSW 41mi, 67km
Updated: Thu, 14-Nov-2019 2:56am MST
Clear
Clear
 Wind from calm
Wind: Calm
Temperature: 30°F , -1°C
Dew Point: 27°F , -3°C
Humidity: 86%
Barometer: 30.23 inHg , 1023.7 hPa
Clouds: Clear
Visibility: 10 miles , 16 km
2019/11/14 09:56 KPVU 140956Z AUTO 00000KT 10SM CLR M01/M03 A3023 RMK AO2 SLP233 T10061028 FZRANO
KHIF - Hill Afb/Ogden, Utah, USA
Distance from station: NW 45mi, 72km
Updated: Thu, 14-Nov-2019 2:58am MST
Clear
Clear
 Wind from ESE
Wind: ESE 20 mph , 31 km/h
Temperature: 39°F , 4°C
Wind Chill: 29°F , -2°C
Dew Point: 27°F , -3°C
Humidity: 61%
Barometer: 30.19 inHg , 1022.4 hPa
Clouds: Clear
Visibility: 10 miles , 16 km
2019/11/14 09:58 KHIF 140958Z AUTO 11017KT 10SM CLR 04/M03 A3019 RMK AO2 SLP208 T00401033
 
KOGD - Ogden, Utah, USA
Distance from station: NW 50mi, 81km
Updated: Thu, 14-Nov-2019 2:53am MST
Clear
Clear
 Wind from S
Wind: S 7 mph , 11 km/h
Temperature: 37°F , 3°C
Wind Chill: 32°F , 0°C
Dew Point: 25°F , -4°C
Humidity: 60%
Barometer: 30.19 inHg , 1022.4 hPa
Clouds: Clear
Visibility: 10 miles , 16 km
2019/11/14 09:53 KOGD 140953Z AUTO 19006KT 10SM CLR 03/M04 A3019 RMK AO2 SLP209 T00281039